Strona główna
METAR-TAF:

METAR-TAF

Lotnisko :

Port lotniczy Notodden

Notodden, Norwegia

Szerokość geograficzna: 59-34N, Długość geograficzna: 009-13E, wysokość: 19 m

Aktualna obserwacja pogody

Raport powstał 9 godziny i 30 minut temu, godzina 14:20 UTC
Wiatr 4 kt od południowy wschód, zmienny między wschód i południowo-południowy zachód
Temperatura 18°C
Wilgotność 20%
Ciśnienie 1028 hPa
Widzialność 10 km lub więcej
Brak chmur poniżej 1500 m i brak chmur cumulonimbus

METAR: ENNO 181420Z 14004KT 100V200 CAVOK 18/M05 Q1028

czas: 01:50 (23:50 UTC)


TAF: brakujący

Obserwacja i prognoza pogody dla ponad 4000 lotnisk (raport METAR i TAF).

Dostępne stacje oznaczono żółtymi i czerwonymi punktami na mapie.

Najedź kursorem aby zobaczyć nazwę stacji.

Kliknij aby zobaczyć obserwacje i prognozy pogody.

Aby zmienić mapę: kliknij na zielony przycisk z czarnym krzyżykiem, aby powiększyć; na zielony przycisk z myślnikiem, aby pomniejszyć; na zielone strzałki, aby przejść do map sąsiednich.


METAR-TAF: